Kathy C — 2CTI7 — position and weather

sailwx.info

Track history (hours):
 
Tides and Currents Weather Stations Pressure Air Temp Water Temp Dewpoint Dewpoint Depression Visibility Wind Speed Wind Dir Waves Ship Positions

Kathy C

Last reported at 2016-Jun-18 22:33 UTC. Time now 2016-Jun-24 22:22 UTC.
Position N 38°56' E 012°19'.

Length 106 m; draft 4.5 m.

Type: Cargo ship. MMSI: 235075591.

Date/timePositionNaut miles runAvg speedWind from/ knotsBaromVisibWave heightAir tempDewpointWater temp
2016-Jun-18 22:33N 38°56' E 012°19'3411.3
2016-Jun-18 19:33N 39°27' E 012°35'2311.3
2016-Jun-18 17:33N 39°49' E 012°46'2311.6
2016-Jun-18 15:33N 40°10' E 012°57'2711.8
2016-Jun-18 13:15N 40°35' E 013°11'911.8
2016-Jun-18 12:31N 40°43' E 013°15'1111.8
2016-Jun-18 11:33N 40°54' E 013°20'1211.7
2016-Jun-18 10:33N 41°03' E 013°29'11 9.3
2016-Jun-18 09:20N 41°14' E 013°34'0 0.0
2016-Jun-18 02:23N 41°14' E 013°34'0 0.0
2016-Jun-18 01:32N 41°14' E 013°34'0 0.0
2016-Jun-17 22:32N 41°14' E 013°34'0 0.0
2016-Jun-17 21:32N 41°14' E 013°34'0 0.0
2016-Jun-17 20:32N 41°14' E 013°34'0 0.0
2016-Jun-17 19:26N 41°14' E 013°34'0 0.0
2016-Jun-17 18:32N 41°14' E 013°34'0 0.0
2016-Jun-17 14:26N 41°14' E 013°34'0 0.0
2016-Jun-17 13:32N 41°14' E 013°34'0 0.0
2016-Jun-17 12:32N 41°14' E 013°34'0 0.0
2016-Jun-16 15:14N 41°14' E 013°34'0 0.0
2016-Jun-16 05:34N 41°14' E 013°34'0 0.3
2016-Jun-16 04:33N 41°14' E 013°35'2 2.2
2016-Jun-16 03:29N 41°13' E 013°38'0 0.0
2016-Jun-16 02:17N 41°13' E 013°38'0 0.0
2016-Jun-16 00:29N 41°13' E 013°38'0 0.0
2016-Jun-15 23:29N 41°13' E 013°38'0 0.0
2016-Jun-15 18:29N 41°13' E 013°38'0 0.0
2016-Jun-15 16:31N 41°13' E 013°38'17110.0
2016-Jun-14 23:23N 42°35' E 010°16'5210.1
2016-Jun-14 18:15N 43°08' E 009°22'6 8.4
2016-Jun-14 17:33N 43°14' E 009°21'8 8.5
2016-Jun-14 16:34N 43°22' E 009°19'10 9.9
2016-Jun-14 15:34N 43°30' E 009°12'1010.3
2016-Jun-14 14:33N 43°39' E 009°04'1110.5
2016-Jun-14 13:34N 43°48' E 008°57'1110.7
2016-Jun-14 12:34N 43°57' E 008°49'1110.6
2016-Jun-14 11:34N 44°06' E 008°41'1110.8
2016-Jun-14 10:33N 44°16' E 008°33'4 3.6
2016-Jun-14 09:25N 44°19' E 008°30'0 0.0
2016-Jun-14 08:22N 44°19' E 008°30'0 0.0
2016-Jun-14 07:31N 44°19' E 008°30'0 0.0
2016-Jun-14 05:31N 44°19' E 008°30'0 0.0
2016-Jun-14 04:28N 44°19' E 008°30'0 0.0
2016-Jun-14 03:31N 44°19' E 008°30'0 0.0
2016-Jun-14 02:31N 44°19' E 008°30'0 0.0
2016-Jun-14 01:31N 44°19' E 008°30'0 0.0
2016-Jun-14 00:25N 44°19' E 008°30'0 0.0
2016-Jun-13 23:31N 44°19' E 008°30'0 0.0
2016-Jun-13 22:31N 44°19' E 008°30'0 0.0
2016-Jun-13 21:31N 44°19' E 008°30'0 0.0
2016-Jun-13 20:31N 44°19' E 008°30'0 0.0
2016-Jun-13 19:31N 44°19' E 008°30'0 0.0
2016-Jun-13 18:31N 44°19' E 008°30'0 0.0
2016-Jun-13 17:31N 44°19' E 008°30'0 0.0
2016-Jun-13 16:31N 44°19' E 008°30'0 0.0
2016-Jun-13 15:31N 44°19' E 008°30'0 0.0
2016-Jun-13 14:25N 44°19' E 008°30'0 0.0
2016-Jun-13 13:31N 44°19' E 008°30'0 0.0
2016-Jun-13 12:31N 44°19' E 008°30'0 0.0
2016-Jun-13 11:31N 44°19' E 008°30'0 0.0
2016-Jun-13 10:31N 44°19' E 008°30'0 0.0
2016-Jun-13 09:31N 44°19' E 008°30'0 0.0
2016-Jun-13 08:25N 44°19' E 008°30'0 0.0
2016-Jun-13 07:31N 44°19' E 008°30'0 0.0
2016-Jun-13 06:25N 44°19' E 008°30'0 0.0
2016-Jun-13 05:33N 44°19' E 008°30'2 1.5
2016-Jun-13 04:31N 44°17' E 008°30'0 0.5
2016-Jun-13 03:31N 44°18' E 008°30'0 0.1
2016-Jun-13 02:31N 44°18' E 008°30'0 0.0
2016-Jun-13 01:31N 44°18' E 008°30'0 0.0
2016-Jun-13 00:31N 44°18' E 008°30'0 0.0
2016-Jun-12 23:31N 44°18' E 008°30'0 0.0
2016-Jun-12 22:31N 44°18' E 008°30'0 0.0
2016-Jun-12 21:31N 44°18' E 008°30'0 0.0
2016-Jun-12 20:31N 44°18' E 008°30'0 0.1
2016-Jun-12 19:31N 44°18' E 008°30'0 0.1
2016-Jun-12 18:31N 44°18' E 008°30'0 0.0
2016-Jun-12 17:31N 44°18' E 008°30'0 0.0
2016-Jun-12 16:31N 44°18' E 008°30'0 0.0
2016-Jun-12 15:31N 44°18' E 008°30'0 0.0
2016-Jun-12 14:31N 44°18' E 008°30'0 0.0
2016-Jun-12 13:31N 44°18' E 008°30'0 0.0
2016-Jun-12 12:31N 44°18' E 008°30'0 0.0
2016-Jun-12 11:31N 44°18' E 008°30'0 0.0
2016-Jun-12 10:31N 44°18' E 008°30'0 0.0
2016-Jun-12 09:31N 44°18' E 008°30'5 5.0
2016-Jun-12 08:33N 44°13' E 008°30'10 9.6
2016-Jun-12 07:32N 44°04' E 008°24'292 9.4
2016-Jun-11 00:33N 40°47' E 003°31'1010.2
2016-Jun-10 23:32N 40°39' E 003°23'1010.1
2016-Jun-10 22:33N 40°31' E 003°15'1010.3
2016-Jun-10 21:33N 40°23' E 003°06'1010.4
2016-Jun-10 20:33N 40°15' E 002°58'1110.7
2016-Jun-10 19:33N 40°07' E 002°49'1110.6
2016-Jun-10 18:34N 39°59' E 002°40'1110.7
2016-Jun-10 17:33N 39°52' E 002°29'1110.6
2016-Jun-10 16:31N 39°46' E 002°17'1010.6
2016-Jun-10 15:33N 39°39' E 002°07'1010.5
2016-Jun-10 14:33N 39°35' E 001°55'1010.5
2016-Jun-10 13:33N 39°29' E 001°43'1110.8
2016-Jun-10 12:33N 39°22' E 001°33'1110.8
2016-Jun-10 11:33N 39°15' E 001°22'1110.6
2016-Jun-10 10:33N 39°08' E 001°12'50 9.9
2016-Jun-10 05:29N 38°36' E 000°23'8 8.8
2016-Jun-10 04:33N 38°29' E 000°17'9 8.9
2016-Jun-10 03:33N 38°22' E 000°10'10 8.8
2016-Jun-10 02:24N 38°13' E 000°03'8 9.0
2016-Jun-10 01:33N 38°07' W 000°02'9 9.0
2016-Jun-10 00:33N 37°59' W 000°09'9 9.4
2016-Jun-09 23:33N 37°52' W 000°15'10 9.5
2016-Jun-09 22:33N 37°44' W 000°22'10 9.5
2016-Jun-09 21:33N 37°36' W 000°29'10 9.7
2016-Jun-09 20:33N 37°29' W 000°37'10 9.5
2016-Jun-09 19:33N 37°22' W 000°46'9 9.4
2016-Jun-09 18:34N 37°16' W 000°55'9 9.1
2016-Jun-09 17:33N 37°10' W 001°03'11 9.3
2016-Jun-09 16:25N 37°03' W 001°13'  
Track history (hours):
 
Tides and Currents Weather Stations Pressure Air Temp Water Temp Dewpoint Dewpoint Depression Visibility Wind Speed Wind Dir Waves Ship Positions

Kathy C

Last reported at 2016-Jun-18 22:33 UTC. Time now 2016-Jun-24 22:22 UTC.
Position N 38°56' E 012°19'.

Length 106 m; draft 4.5 m.

Type: Cargo ship. MMSI: 235075591.

Date/timePositionNaut miles runAvg speedWind from/ knotsBaromVisibWave heightAir tempDewpointWater temp
2016-Jun-18 22:33N 38°56' E 012°19'3411.3
2016-Jun-18 19:33N 39°27' E 012°35'2311.3
2016-Jun-18 17:33N 39°49' E 012°46'2311.6
2016-Jun-18 15:33N 40°10' E 012°57'2711.8
2016-Jun-18 13:15N 40°35' E 013°11'911.8
2016-Jun-18 12:31N 40°43' E 013°15'1111.8
2016-Jun-18 11:33N 40°54' E 013°20'1211.7
2016-Jun-18 10:33N 41°03' E 013°29'11 9.3
2016-Jun-18 09:20N 41°14' E 013°34'0 0.0
2016-Jun-18 02:23N 41°14' E 013°34'0 0.0
2016-Jun-18 01:32N 41°14' E 013°34'0 0.0
2016-Jun-17 22:32N 41°14' E 013°34'0 0.0
2016-Jun-17 21:32N 41°14' E 013°34'0 0.0
2016-Jun-17 20:32N 41°14' E 013°34'0 0.0
2016-Jun-17 19:26N 41°14' E 013°34'0 0.0
2016-Jun-17 18:32N 41°14' E 013°34'0 0.0
2016-Jun-17 14:26N 41°14' E 013°34'0 0.0
2016-Jun-17 13:32N 41°14' E 013°34'0 0.0
2016-Jun-17 12:32N 41°14' E 013°34'0 0.0
2016-Jun-16 15:14N 41°14' E 013°34'0 0.0
2016-Jun-16 05:34N 41°14' E 013°34'0 0.3
2016-Jun-16 04:33N 41°14' E 013°35'2 2.2
2016-Jun-16 03:29N 41°13' E 013°38'0 0.0
2016-Jun-16 02:17N 41°13' E 013°38'0 0.0
2016-Jun-16 00:29N 41°13' E 013°38'0 0.0
2016-Jun-15 23:29N 41°13' E 013°38'0 0.0
2016-Jun-15 18:29N 41°13' E 013°38'0 0.0
2016-Jun-15 16:31N 41°13' E 013°38'17110.0
2016-Jun-14 23:23N 42°35' E 010°16'5210.1
2016-Jun-14 18:15N 43°08' E 009°22'6 8.4
2016-Jun-14 17:33N 43°14' E 009°21'8 8.5
2016-Jun-14 16:34N 43°22' E 009°19'10 9.9
2016-Jun-14 15:34N 43°30' E 009°12'1010.3
2016-Jun-14 14:33N 43°39' E 009°04'1110.5
2016-Jun-14 13:34N 43°48' E 008°57'1110.7
2016-Jun-14 12:34N 43°57' E 008°49'1110.6
2016-Jun-14 11:34N 44°06' E 008°41'1110.8
2016-Jun-14 10:33N 44°16' E 008°33'4 3.6
2016-Jun-14 09:25N 44°19' E 008°30'0 0.0
2016-Jun-14 08:22N 44°19' E 008°30'0 0.0
2016-Jun-14 07:31N 44°19' E 008°30'0 0.0
2016-Jun-14 05:31N 44°19' E 008°30'0 0.0
2016-Jun-14 04:28N 44°19' E 008°30'0 0.0
2016-Jun-14 03:31N 44°19' E 008°30'0 0.0
2016-Jun-14 02:31N 44°19' E 008°30'0 0.0
2016-Jun-14 01:31N 44°19' E 008°30'0 0.0
2016-Jun-14 00:25N 44°19' E 008°30'0 0.0
2016-Jun-13 23:31N 44°19' E 008°30'0 0.0
2016-Jun-13 22:31N 44°19' E 008°30'0 0.0
2016-Jun-13 21:31N 44°19' E 008°30'0 0.0
2016-Jun-13 20:31N 44°19' E 008°30'0 0.0
2016-Jun-13 19:31N 44°19' E 008°30'0 0.0
2016-Jun-13 18:31N 44°19' E 008°30'0 0.0
2016-Jun-13 17:31N 44°19' E 008°30'0 0.0
2016-Jun-13 16:31N 44°19' E 008°30'0 0.0
2016-Jun-13 15:31N 44°19' E 008°30'0 0.0
2016-Jun-13 14:25N 44°19' E 008°30'0 0.0
2016-Jun-13 13:31N 44°19' E 008°30'0 0.0
2016-Jun-13 12:31N 44°19' E 008°30'0 0.0
2016-Jun-13 11:31N 44°19' E 008°30'0 0.0
2016-Jun-13 10:31N 44°19' E 008°30'0 0.0
2016-Jun-13 09:31N 44°19' E 008°30'0 0.0
2016-Jun-13 08:25N 44°19' E 008°30'0 0.0
2016-Jun-13 07:31N 44°19' E 008°30'0 0.0
2016-Jun-13 06:25N 44°19' E 008°30'0 0.0
2016-Jun-13 05:33N 44°19' E 008°30'2 1.5
2016-Jun-13 04:31N 44°17' E 008°30'0 0.5
2016-Jun-13 03:31N 44°18' E 008°30'0 0.1
2016-Jun-13 02:31N 44°18' E 008°30'0 0.0
2016-Jun-13 01:31N 44°18' E 008°30'0 0.0
2016-Jun-13 00:31N 44°18' E 008°30'0 0.0
2016-Jun-12 23:31N 44°18' E 008°30'0 0.0
2016-Jun-12 22:31N 44°18' E 008°30'0 0.0
2016-Jun-12 21:31N 44°18' E 008°30'0 0.0
2016-Jun-12 20:31N 44°18' E 008°30'0 0.1
2016-Jun-12 19:31N 44°18' E 008°30'0 0.1
2016-Jun-12 18:31N 44°18' E 008°30'0 0.0
2016-Jun-12 17:31N 44°18' E 008°30'0 0.0
2016-Jun-12 16:31N 44°18' E 008°30'0 0.0
2016-Jun-12 15:31N 44°18' E 008°30'0 0.0
2016-Jun-12 14:31N 44°18' E 008°30'0 0.0
2016-Jun-12 13:31N 44°18' E 008°30'0 0.0
2016-Jun-12 12:31N 44°18' E 008°30'0 0.0
2016-Jun-12 11:31N 44°18' E 008°30'0 0.0
2016-Jun-12 10:31N 44°18' E 008°30'0 0.0
2016-Jun-12 09:31N 44°18' E 008°30'5 5.0
2016-Jun-12 08:33N 44°13' E 008°30'10 9.6
2016-Jun-12 07:32N 44°04' E 008°24'292 9.4
2016-Jun-11 00:33N 40°47' E 003°31'1010.2
2016-Jun-10 23:32N 40°39' E 003°23'1010.1
2016-Jun-10 22:33N 40°31' E 003°15'1010.3
2016-Jun-10 21:33N 40°23' E 003°06'1010.4
2016-Jun-10 20:33N 40°15' E 002°58'1110.7
2016-Jun-10 19:33N 40°07' E 002°49'1110.6
2016-Jun-10 18:34N 39°59' E 002°40'1110.7
2016-Jun-10 17:33N 39°52' E 002°29'1110.6
2016-Jun-10 16:31N 39°46' E 002°17'1010.6
2016-Jun-10 15:33N 39°39' E 002°07'1010.5
2016-Jun-10 14:33N 39°35' E 001°55'1010.5
2016-Jun-10 13:33N 39°29' E 001°43'1110.8
2016-Jun-10 12:33N 39°22' E 001°33'1110.8
2016-Jun-10 11:33N 39°15' E 001°22'1110.6
2016-Jun-10 10:33N 39°08' E 001°12'50 9.9
2016-Jun-10 05:29N 38°36' E 000°23'8 8.8
2016-Jun-10 04:33N 38°29' E 000°17'9 8.9
2016-Jun-10 03:33N 38°22' E 000°10'10 8.8
2016-Jun-10 02:24N 38°13' E 000°03'8 9.0
2016-Jun-10 01:33N 38°07' W 000°02'9 9.0
2016-Jun-10 00:33N 37°59' W 000°09'9 9.4
2016-Jun-09 23:33N 37°52' W 000°15'10 9.5
2016-Jun-09 22:33N 37°44' W 000°22'10 9.5
2016-Jun-09 21:33N 37°36' W 000°29'10 9.7
2016-Jun-09 20:33N 37°29' W 000°37'10 9.5
2016-Jun-09 19:33N 37°22' W 000°46'9 9.4
2016-Jun-09 18:34N 37°16' W 000°55'9 9.1
2016-Jun-09 17:33N 37°10' W 001°03'11 9.3
2016-Jun-09 16:25N 37°03' W 001°13'  

Dump ship's entire track history